Wednesday, August 27, 2014, 11:18 PM EDT

KLNS, Lancaster Airport

Location: Lititz, PA, United States Lat: 40.117
Local Time: 11:18 PM EDT ( 3:18 GMT) Lon: -76.3
Time Zone: US/Eastern Elev: 403 ft

Show me the last for .
Show Decoded

2014-08-27 22:53 METAR KLNS 280253Z 00000KT 10SM FEW047 24/20 A2992 RMK AO2 SLP127 T02440200
                 50003 =
2014-08-27 22:30 METAR KLNS 280230Z 34007KT 9SM CLR 26/21 A2992 RMK AO2 LTG DSNT W T02560206 =
2014-08-27 22:09 METAR KLNS 280209Z 30006KT 9SM VCTS SCT049 25/21 A2992 RMK AO2 LTG DSNT N
                 T02500206 =
2014-08-27 20:53 METAR KLNS 280053Z 29004KT 10SM CLR 25/21 A2991 RMK AO2 LTG DSNT NW SLP125
                 T02500206 =
2014-08-27 19:53 METAR KLNS 272353Z 27004KT 10SM CLR 27/20 A2991 RMK AO2 LTG DSNT N SLP124
                 T02670200 10311 20267 55007 =
2014-08-27 17:53 METAR KLNS 272153Z 28008KT 10SM CLR 30/18 A2992 RMK AO2 SLP130 T03000183 =
2014-08-27 16:53 METAR KLNS 272053Z 27008KT 10SM CLR 31/19 A2993 RMK AO2 SLP132 T03060189 56020 =
2014-08-27 15:53 METAR KLNS 271953Z 28006KT 10SM CLR 31/18 A2994 RMK AO2 SLP134 T03060183 =
2014-08-27 14:53 METAR KLNS 271853Z 28006KT 10SM CLR 30/18 A2996 RMK AO2 SLP143 T03000183 =
2014-08-27 13:53 METAR KLNS 271753Z 29007KT 10SM SCT050 BKN065 29/18 A2999 RMK AO2 SLP152
                 T02940183 10294 20189 58024 =
2014-08-27 12:53 METAR KLNS 271653Z 24004KT 10SM FEW055 28/17 A3001 RMK AO2 SLP160 T02830172 =
2014-08-27 11:53 METAR KLNS 271553Z 26006KT 10SM OVC060 27/18 A3004 RMK AO2 SLP171 T02670178 =
2014-08-27 10:53 METAR KLNS 271453Z 26006KT 9SM BKN040 OVC050 26/18 A3006 RMK AO2 SLP177
                 T02610183 58004 =
2014-08-27 07:53 METAR KLNS 271153Z 00000KT 3SM BR CLR 19/17 A3008 RMK AO2 SLP182 T01890167 10189
                 20161 51004 =
2014-08-27 06:53 METAR KLNS 271053Z 00000KT 3SM BR CLR 17/15 A3007 RMK AO2 SLP181 T01670150 =
2014-08-27 05:53 METAR KLNS 270953Z 27003KT 4SM BR CLR 17/16 A3007 RMK AO2 SLP179 T01670156 =
2014-08-27 04:53 METAR KLNS 270853Z AUTO 00000KT 5SM BR CLR 16/15 A3006 RMK AO2 SLP178 T01610150
                 55004 =
2014-08-27 03:53 METAR KLNS 270753Z AUTO 00000KT 5SM BR CLR 17/16 A3006 RMK AO2 SLP175 T01720156
                 =
2014-08-27 02:53 METAR KLNS 270653Z AUTO 04003KT 7SM CLR 17/16 A3006 RMK AO2 SLP177 T01720156 =
2014-08-27 01:53 METAR KLNS 270553Z AUTO 00000KT 7SM CLR 18/16 A3008 RMK AO2 SLP181 T01780161
                 10244 20172 58009 =
2014-08-27 00:53 METAR KLNS 270453Z AUTO 06003KT 9SM CLR 19/16 A3009 RMK AO2 SLP186 T01890161
                 402940144 =
2014-08-26 23:53 METAR KLNS 270353Z AUTO 05003KT 8SM CLR 18/16 A3010 RMK AO2 SLP188 T01780161 =

Support USWX by starting your Amazon purchase here.